createdAt,value
2018-07-05T00:02:17.963Z,99.90
2018-07-05T00:04:57.630Z,99.90
2018-07-05T00:07:37.331Z,99.90
2018-07-05T00:10:16.833Z,99.90
2018-07-05T00:12:56.329Z,99.90
2018-07-05T00:15:35.934Z,99.90
2018-07-05T00:18:15.250Z,99.90
2018-07-05T00:20:54.763Z,99.90
2018-07-05T00:23:34.170Z,99.90
2018-07-05T00:26:13.785Z,99.90
2018-07-05T00:28:53.242Z,99.90
2018-07-05T00:31:32.699Z,99.90
2018-07-05T00:34:12.166Z,99.90
2018-07-05T00:36:51.715Z,99.90
2018-07-05T00:39:31.066Z,99.90
2018-07-05T00:42:10.689Z,99.90
2018-07-05T00:44:50.149Z,99.90
2018-07-05T00:47:29.754Z,99.90
2018-07-05T00:50:09.192Z,99.90
2018-07-05T00:52:49.003Z,99.90
2018-07-05T00:55:28.619Z,99.90
2018-07-05T00:58:08.187Z,99.90
2018-07-05T01:00:47.779Z,99.90
2018-07-05T01:03:27.254Z,99.90
2018-07-05T01:06:06.572Z,99.90
2018-07-05T01:08:46.199Z,99.90
2018-07-05T01:11:25.718Z,99.90
2018-07-05T01:14:05.364Z,99.90
2018-07-05T01:16:44.786Z,99.90
2018-07-05T01:19:24.270Z,99.90
2018-07-05T01:24:37.325Z,99.90
2018-07-05T01:27:16.902Z,99.90
2018-07-05T01:29:56.381Z,99.90
2018-07-05T01:32:35.926Z,99.90
2018-07-05T01:37:49.041Z,99.90
2018-07-05T01:40:28.678Z,99.90
2018-07-05T01:43:08.090Z,99.90
2018-07-05T01:45:47.560Z,99.90
2018-07-05T01:48:27.064Z,99.90
2018-07-05T01:51:06.514Z,99.90
2018-07-05T01:53:46.062Z,99.90
2018-07-05T01:56:25.687Z,99.90
2018-07-05T01:59:05.269Z,99.90
2018-07-05T02:01:44.972Z,99.90
2018-07-05T02:04:24.449Z,99.90
2018-07-05T02:07:03.952Z,99.90
2018-07-05T02:09:43.494Z,99.90
2018-07-05T02:12:22.928Z,99.90
2018-07-05T02:15:02.454Z,99.90
2018-07-05T02:17:42.190Z,99.90
2018-07-05T02:20:21.824Z,99.90
2018-07-05T02:23:01.487Z,99.90
2018-07-05T02:25:40.938Z,99.90
2018-07-05T02:28:20.463Z,99.90
2018-07-05T02:31:00.007Z,99.90
2018-07-05T02:33:39.528Z,99.90
2018-07-05T02:36:18.998Z,99.90
2018-07-05T02:39:04.246Z,99.90
2018-07-05T02:41:43.758Z,99.90
2018-07-05T02:44:23.198Z,99.90
2018-07-05T02:47:02.650Z,99.90
2018-07-05T02:52:15.913Z,99.90
2018-07-05T02:54:55.411Z,99.90
2018-07-05T02:57:34.939Z,99.90
2018-07-05T03:00:14.445Z,99.90
2018-07-05T03:02:53.927Z,99.90
2018-07-05T03:05:33.420Z,99.90
2018-07-05T03:08:12.885Z,99.90
2018-07-05T03:10:52.410Z,99.90
2018-07-05T03:13:31.998Z,99.90
2018-07-05T03:16:11.412Z,99.90
2018-07-05T03:18:50.978Z,99.90
2018-07-05T03:21:30.779Z,99.90
2018-07-05T03:24:10.418Z,99.90
2018-07-05T03:26:49.895Z,99.90
2018-07-05T03:29:29.366Z,99.90
2018-07-05T03:34:42.556Z,99.90
2018-07-05T03:37:22.116Z,99.90
2018-07-05T03:40:01.659Z,99.90
2018-07-05T03:42:41.322Z,99.90
2018-07-05T03:47:54.506Z,99.90
2018-07-05T03:50:33.950Z,99.90
2018-07-05T03:53:13.602Z,99.90
2018-07-05T03:55:53.198Z,99.90
2018-07-05T03:58:32.734Z,99.90
2018-07-05T04:03:46.098Z,99.90
2018-07-05T04:06:25.610Z,99.90
2018-07-05T04:09:05.491Z,99.90
2018-07-05T04:11:45.123Z,99.90
2018-07-05T04:14:24.574Z,99.90
2018-07-05T04:17:04.131Z,99.90
2018-07-05T04:19:51.246Z,99.90
2018-07-05T04:22:30.822Z,99.90
2018-07-05T04:25:12.123Z,99.90
2018-07-05T04:27:51.567Z,99.90
2018-07-05T04:30:31.118Z,99.90
2018-07-05T04:33:10.537Z,99.90
2018-07-05T04:35:49.930Z,99.90
2018-07-05T04:38:29.394Z,99.90
2018-07-05T04:41:08.761Z,99.90
2018-07-05T04:43:48.358Z,99.90
2018-07-05T04:46:27.798Z,99.90
2018-07-05T04:49:07.389Z,99.90
2018-07-05T04:51:47.008Z,99.90
2018-07-05T04:54:26.473Z,99.90
2018-07-05T04:57:06.141Z,99.90
2018-07-05T04:59:45.789Z,99.90
2018-07-05T05:02:25.205Z,99.90
2018-07-05T05:05:04.737Z,99.90
2018-07-05T05:07:43.470Z,99.90
2018-07-05T05:10:22.910Z,99.90
2018-07-05T05:13:02.511Z,99.70
2018-07-05T05:15:42.100Z,99.30
2018-07-05T05:18:21.478Z,99.20
2018-07-05T05:21:01.136Z,98.50
2018-07-05T05:23:41.610Z,98.30
2018-07-05T05:26:21.202Z,98.00
2018-07-05T05:29:01.072Z,97.50
2018-07-05T05:31:40.557Z,97.30
2018-07-05T05:34:20.152Z,97.00
2018-07-05T05:36:59.730Z,96.70
2018-07-05T05:39:39.303Z,96.30
2018-07-05T05:42:18.852Z,96.20
2018-07-05T05:44:58.532Z,95.80
2018-07-05T05:47:38.002Z,95.50
2018-07-05T05:50:17.787Z,95.40
2018-07-05T05:52:57.358Z,95.40
2018-07-05T05:55:37.224Z,95.30
2018-07-05T05:58:17.070Z,95.00
2018-07-05T06:00:56.907Z,94.30
2018-07-05T06:03:36.268Z,93.60
2018-07-05T06:06:15.833Z,92.90
2018-07-05T06:08:55.273Z,92.90
2018-07-05T06:11:35.053Z,92.70
2018-07-05T06:14:14.639Z,92.80
2018-07-05T06:16:54.351Z,92.80
2018-07-05T06:19:33.876Z,92.30
2018-07-05T06:22:13.222Z,92.10
2018-07-05T06:24:52.790Z,92.00
2018-07-05T06:27:32.236Z,92.00
2018-07-05T06:30:11.846Z,91.90
2018-07-05T06:32:51.545Z,91.90
2018-07-05T06:35:31.239Z,91.30
2018-07-05T06:38:10.783Z,90.60
2018-07-05T06:40:50.270Z,90.10
2018-07-05T06:43:29.866Z,89.70
2018-07-05T06:48:43.110Z,89.10
2018-07-05T06:51:22.578Z,88.20
2018-07-05T06:54:02.451Z,88.00
2018-07-05T06:56:41.982Z,85.50
2018-07-05T06:59:21.470Z,85.80
2018-07-05T07:02:00.845Z,86.30
2018-07-05T07:04:40.351Z,85.60
2018-07-05T07:07:19.750Z,84.40
2018-07-05T07:09:59.381Z,83.50
2018-07-05T07:12:38.933Z,83.60
2018-07-05T07:15:18.413Z,83.70
2018-07-05T07:17:57.998Z,84.10
2018-07-05T07:20:37.604Z,84.20
2018-07-05T07:23:17.091Z,84.90
2018-07-05T07:25:56.604Z,81.80
2018-07-05T07:28:36.098Z,79.40
2018-07-05T07:31:15.609Z,77.50
2018-07-05T07:33:54.966Z,75.90
2018-07-05T07:36:34.576Z,75.30
2018-07-05T07:39:14.124Z,75.10
2018-07-05T07:41:49.318Z,76.80
2018-07-05T07:44:17.724Z,77.40
2018-07-05T07:46:45.627Z,78.00
2018-07-05T07:49:13.237Z,77.70
2018-07-05T07:51:40.438Z,77.90
2018-07-05T07:54:07.676Z,79.10
2018-07-05T07:56:34.859Z,79.90
2018-07-05T07:59:02.122Z,80.90
2018-07-05T08:01:29.352Z,80.90
2018-07-05T08:03:56.561Z,80.70
2018-07-05T08:06:23.816Z,81.40
2018-07-05T08:08:51.010Z,81.00
2018-07-05T08:11:18.338Z,80.00
2018-07-05T08:13:45.651Z,79.00
2018-07-05T08:16:12.883Z,79.50
2018-07-05T08:18:40.135Z,79.10
2018-07-05T08:21:07.364Z,78.80
2018-07-05T08:23:34.578Z,78.50
2018-07-05T08:26:01.790Z,78.90
2018-07-05T08:28:29.061Z,80.00
2018-07-05T08:30:56.266Z,79.70
2018-07-05T08:33:23.506Z,80.00
2018-07-05T08:35:50.703Z,80.50
2018-07-05T08:38:17.910Z,80.40
2018-07-05T08:40:45.153Z,79.80
2018-07-05T08:43:12.359Z,78.60
2018-07-05T08:45:39.555Z,78.40
2018-07-05T08:48:06.809Z,76.40
2018-07-05T08:50:34.015Z,75.80
2018-07-05T08:57:56.282Z,75.10
2018-07-05T09:00:23.482Z,74.90
2018-07-05T09:02:50.745Z,74.40
2018-07-05T09:05:18.008Z,72.90
2018-07-05T09:07:45.220Z,70.80
2018-07-05T09:10:12.418Z,69.80
2018-07-05T09:12:39.636Z,70.00
2018-07-05T09:15:06.834Z,70.70
2018-07-05T09:17:34.122Z,70.70
2018-07-05T09:20:01.217Z,70.00
2018-07-05T09:22:28.404Z,70.20
2018-07-05T09:24:55.601Z,71.00
2018-07-05T09:27:22.790Z,70.50
2018-07-05T09:29:50.007Z,69.70
2018-07-05T09:32:17.264Z,68.60
2018-07-05T09:34:44.480Z,64.40
2018-07-05T09:37:11.798Z,64.80
2018-07-05T09:39:38.972Z,65.50
2018-07-05T09:42:06.226Z,64.50
2018-07-05T09:44:33.442Z,63.90
2018-07-05T09:47:01.136Z,66.70
2018-07-05T09:49:28.871Z,66.30
2018-07-05T09:51:56.090Z,66.60
2018-07-05T09:54:23.337Z,64.70
2018-07-05T09:56:50.583Z,64.10
2018-07-05T09:59:17.790Z,63.70
2018-07-05T10:01:45.040Z,60.70
2018-07-05T10:04:12.450Z,59.90
2018-07-05T10:06:39.663Z,58.80
2018-07-05T10:14:02.026Z,54.70
2018-07-05T10:16:29.291Z,53.00
2018-07-05T10:18:56.553Z,51.50
2018-07-05T10:21:23.778Z,50.50
2018-07-05T10:23:50.983Z,49.50
2018-07-05T10:26:19.030Z,48.60
2018-07-05T10:33:53.582Z,41.00
2018-07-05T10:36:20.793Z,45.00
2018-07-05T10:38:48.003Z,45.00
2018-07-05T10:41:27.619Z,45.60
2018-07-05T10:44:07.107Z,44.70
2018-07-05T10:46:46.698Z,44.60
2018-07-05T10:49:26.309Z,44.80
2018-07-05T10:52:06.877Z,41.50
2018-07-05T10:54:46.330Z,40.80
2018-07-05T10:57:25.721Z,38.00
2018-07-05T11:00:05.292Z,37.40
2018-07-05T11:02:44.703Z,37.80
2018-07-05T11:05:24.334Z,38.20
2018-07-05T11:08:03.923Z,39.40
2018-07-05T11:10:43.409Z,39.10
2018-07-05T11:13:22.743Z,38.60
2018-07-05T11:16:02.367Z,38.30
2018-07-05T11:18:41.838Z,38.00
2018-07-05T11:21:21.347Z,37.70
2018-07-05T11:24:00.934Z,37.70
2018-07-05T11:26:40.559Z,38.00
2018-07-05T11:29:20.381Z,37.90
2018-07-05T11:31:59.978Z,37.50
2018-07-05T11:34:39.480Z,37.50
2018-07-05T11:37:19.062Z,37.70
2018-07-05T11:39:58.522Z,37.90
2018-07-05T11:42:37.989Z,38.50
2018-07-05T11:45:17.745Z,39.20
2018-07-05T11:47:57.461Z,40.30
2018-07-05T11:50:37.034Z,40.70
2018-07-05T11:53:16.651Z,41.70
2018-07-05T11:55:56.363Z,41.80
2018-07-05T11:58:35.943Z,44.40
2018-07-05T12:01:15.465Z,44.00
2018-07-05T12:06:28.451Z,41.90
2018-07-05T12:09:09.020Z,42.10
2018-07-05T12:11:49.087Z,43.60
2018-07-05T12:14:28.750Z,44.70
2018-07-05T12:17:08.404Z,44.20
2018-07-05T12:19:47.946Z,42.20
2018-07-05T12:22:27.602Z,41.20
2018-07-05T12:25:07.122Z,41.30
2018-07-05T12:27:46.603Z,41.80
2018-07-05T12:30:26.282Z,42.70
2018-07-05T12:33:05.904Z,44.30
2018-07-05T12:35:45.594Z,44.10
2018-07-05T12:38:25.260Z,43.40
2018-07-05T12:41:04.815Z,43.60
2018-07-05T12:43:44.190Z,44.10
2018-07-05T12:46:23.778Z,44.90
2018-07-05T12:49:03.380Z,44.60
2018-07-05T12:51:42.950Z,46.10
2018-07-05T12:54:22.627Z,47.40
2018-07-05T12:57:02.146Z,48.70
2018-07-05T12:59:41.562Z,50.20
2018-07-05T13:04:54.758Z,53.70
2018-07-05T13:07:34.453Z,54.40
2018-07-05T13:10:14.107Z,55.50
2018-07-05T13:12:53.707Z,55.70
2018-07-05T13:15:33.391Z,57.90
2018-07-05T13:18:12.911Z,61.00
2018-07-05T13:20:52.537Z,63.70
2018-07-05T13:23:32.206Z,66.10
2018-07-05T13:31:18.969Z,72.00
2018-07-05T13:33:58.712Z,72.40
2018-07-05T13:36:38.367Z,71.50
2018-07-05T13:39:17.969Z,70.90
2018-07-05T13:41:57.465Z,70.70
2018-07-05T13:44:37.107Z,69.80
2018-07-05T13:47:16.652Z,68.30
2018-07-05T13:49:56.240Z,66.40
2018-07-05T13:52:35.833Z,60.70
2018-07-05T13:55:15.413Z,59.30
2018-07-05T13:57:54.983Z,59.20
2018-07-05T14:00:34.687Z,57.00
2018-07-05T14:03:14.242Z,54.60
2018-07-05T14:05:53.787Z,52.80
2018-07-05T14:08:33.439Z,52.00
2018-07-05T14:11:12.927Z,51.80
2018-07-05T14:13:52.464Z,52.00
2018-07-05T14:16:31.994Z,52.30
2018-07-05T14:19:12.036Z,52.20
2018-07-05T14:21:51.623Z,53.10
2018-07-05T14:24:31.225Z,53.00
2018-07-05T14:27:10.726Z,52.90
2018-07-05T14:32:23.787Z,52.40
2018-07-05T14:35:03.396Z,52.70
2018-07-05T14:37:42.848Z,54.20
2018-07-05T14:40:23.452Z,56.10
2018-07-05T14:43:02.953Z,57.20
2018-07-05T14:45:42.667Z,56.90
2018-07-05T14:48:22.214Z,55.80
2018-07-05T14:51:01.887Z,53.20
2018-07-05T14:53:41.387Z,54.50
2018-07-05T14:56:20.878Z,55.00
2018-07-05T14:59:00.419Z,55.30
2018-07-05T15:01:39.896Z,55.60
2018-07-05T15:04:19.512Z,57.00
2018-07-05T15:06:58.950Z,58.00
2018-07-05T15:09:38.513Z,59.30
2018-07-05T15:12:17.946Z,59.80
2018-07-05T15:14:57.683Z,61.10
2018-07-05T15:17:37.150Z,62.40
2018-07-05T15:20:16.655Z,63.00
2018-07-05T15:22:56.601Z,63.20
2018-07-05T15:25:36.194Z,63.10
2018-07-05T15:28:15.627Z,64.20
2018-07-05T15:30:55.185Z,64.70
2018-07-05T15:33:34.706Z,64.70
2018-07-05T15:36:14.380Z,64.30
2018-07-05T15:38:53.975Z,64.00
2018-07-05T15:41:33.626Z,63.90
2018-07-05T15:44:13.264Z,65.40
2018-07-05T15:46:52.885Z,66.30
2018-07-05T15:49:32.470Z,67.30
2018-07-05T15:52:12.116Z,67.40
2018-07-05T15:57:25.360Z,66.30
2018-07-05T16:00:04.827Z,65.30
2018-07-05T16:02:44.327Z,65.50
2018-07-05T16:05:24.143Z,66.20
2018-07-05T16:08:03.672Z,66.80
2018-07-05T16:10:43.284Z,67.50
2018-07-05T16:13:22.833Z,67.80
2018-07-05T16:16:02.436Z,68.20
2018-07-05T16:18:41.938Z,69.50
2018-07-05T16:21:21.393Z,70.50
2018-07-05T16:24:00.956Z,69.10
2018-07-05T16:26:40.425Z,69.40
2018-07-05T16:29:19.921Z,71.40
2018-07-05T16:31:59.289Z,71.90
2018-07-05T16:34:38.900Z,73.10
2018-07-05T16:37:18.462Z,73.00
2018-07-05T16:39:58.069Z,72.40
2018-07-05T16:42:37.626Z,70.50
2018-07-05T16:45:17.233Z,69.60
2018-07-05T16:47:57.031Z,69.60
2018-07-05T16:50:36.786Z,68.80
2018-07-05T16:53:16.277Z,66.90
2018-07-05T16:55:55.941Z,66.70
2018-07-05T16:58:35.567Z,67.70
2018-07-05T17:01:15.066Z,68.60
2018-07-05T17:03:54.697Z,69.20
2018-07-05T17:06:34.319Z,70.00
2018-07-05T17:09:14.032Z,70.30
2018-07-05T17:11:53.610Z,70.30
2018-07-05T17:14:33.243Z,70.50
2018-07-05T17:17:12.662Z,70.70
2018-07-05T17:19:52.196Z,70.90
2018-07-05T17:22:31.733Z,70.90
2018-07-05T17:25:11.157Z,70.40
2018-07-05T17:27:50.744Z,71.50
2018-07-05T17:30:30.375Z,72.90
2018-07-05T17:33:09.827Z,73.90
2018-07-05T17:35:49.333Z,74.20
2018-07-05T17:38:28.814Z,73.50
2018-07-05T17:41:08.530Z,73.60
2018-07-05T17:43:48.064Z,73.00
2018-07-05T17:46:27.859Z,72.80
2018-07-05T17:49:07.474Z,72.80
2018-07-05T17:51:47.967Z,74.50
2018-07-05T17:54:27.583Z,75.60
2018-07-05T17:57:07.184Z,76.60
2018-07-05T17:59:46.550Z,76.90
2018-07-05T18:02:26.210Z,77.30
2018-07-05T18:05:05.782Z,77.60
2018-07-05T18:07:45.286Z,78.10
2018-07-05T18:10:24.783Z,78.60
2018-07-05T18:13:04.463Z,78.30
2018-07-05T18:15:44.002Z,78.70
2018-07-05T18:18:23.542Z,77.20
2018-07-05T18:21:03.158Z,77.10
2018-07-05T18:23:42.854Z,77.70
2018-07-05T18:28:55.859Z,77.50
2018-07-05T18:31:35.454Z,78.10
2018-07-05T18:34:15.054Z,77.90
2018-07-05T18:36:54.563Z,77.90
2018-07-05T18:39:34.040Z,77.90
2018-07-05T18:42:13.683Z,77.90
2018-07-05T18:44:53.114Z,78.20
2018-07-05T18:47:33.467Z,78.90
2018-07-05T18:50:13.083Z,79.60
2018-07-05T18:52:52.729Z,81.20
2018-07-05T18:55:32.319Z,82.30
2018-07-05T18:58:11.802Z,83.20
2018-07-05T19:00:51.394Z,84.00
2018-07-05T19:03:31.033Z,84.40
2018-07-05T19:06:10.522Z,83.50
2018-07-05T19:08:50.046Z,85.00
2018-07-05T19:11:29.531Z,86.20
2018-07-05T19:14:08.950Z,87.40
2018-07-05T19:16:48.556Z,87.60
2018-07-05T19:19:28.082Z,86.20
2018-07-05T19:22:07.655Z,86.60
2018-07-05T19:24:47.055Z,86.90
2018-07-05T19:27:26.642Z,86.10
2018-07-05T19:30:06.112Z,86.40
2018-07-05T19:32:45.568Z,86.00
2018-07-05T19:35:25.023Z,85.90
2018-07-05T19:38:04.618Z,86.00
2018-07-05T19:40:44.165Z,86.10
2018-07-05T19:43:23.744Z,86.20
2018-07-05T19:46:03.244Z,86.70
2018-07-05T19:48:42.839Z,87.90
2018-07-05T19:51:22.406Z,88.80
2018-07-05T19:54:01.863Z,89.60
2018-07-05T19:56:41.367Z,90.70
2018-07-05T19:59:21.118Z,92.80
2018-07-05T20:02:00.657Z,99.50
2018-07-05T20:04:40.004Z,99.90
2018-07-05T20:07:19.558Z,99.90
2018-07-05T20:09:59.115Z,99.90
2018-07-05T20:12:38.693Z,99.90
2018-07-05T20:15:18.327Z,99.90
2018-07-05T20:23:05.305Z,99.90
2018-07-05T20:25:44.906Z,99.90
2018-07-05T20:28:25.122Z,99.90
2018-07-05T20:31:04.589Z,99.90
2018-07-05T20:33:44.122Z,99.90
2018-07-05T20:36:23.647Z,99.90
2018-07-05T20:39:04.289Z,99.90
2018-07-05T20:41:43.978Z,99.90
2018-07-05T20:44:23.559Z,99.90
2018-07-05T20:47:03.248Z,99.90
2018-07-05T20:49:42.810Z,99.90
2018-07-05T20:52:22.284Z,99.90
2018-07-05T20:55:01.747Z,99.90
2018-07-05T20:57:41.342Z,99.90
2018-07-05T21:02:54.277Z,99.90
2018-07-05T21:05:33.858Z,99.90
2018-07-05T21:08:13.342Z,99.90
2018-07-05T21:10:52.851Z,99.90
2018-07-05T21:13:32.322Z,99.90
2018-07-05T21:16:11.803Z,99.90
2018-07-05T21:18:51.289Z,99.90
2018-07-05T21:21:30.750Z,99.90
2018-07-05T21:26:43.934Z,99.90
2018-07-05T21:29:23.402Z,99.90
2018-07-05T21:32:02.868Z,99.90
2018-07-05T21:34:42.349Z,99.90
2018-07-05T21:37:21.937Z,99.90
2018-07-05T21:40:01.502Z,99.90
2018-07-05T21:42:41.027Z,99.90
2018-07-05T21:45:20.827Z,99.90
2018-07-05T21:48:00.302Z,99.90
2018-07-05T21:50:39.806Z,99.90
2018-07-05T21:53:19.242Z,99.90
2018-07-05T21:55:58.759Z,99.90
2018-07-05T21:58:38.138Z,99.90
2018-07-05T22:01:17.762Z,99.90
2018-07-05T22:03:57.110Z,99.90
2018-07-05T22:06:36.976Z,99.90
2018-07-05T22:09:16.414Z,99.90
2018-07-05T22:11:55.931Z,99.90
2018-07-05T22:14:35.449Z,99.90
2018-07-05T22:19:27.935Z,99.90
2018-07-05T22:22:12.927Z,99.90
2018-07-05T22:24:57.958Z,99.90
2018-07-05T22:27:43.224Z,99.90
2018-07-05T22:30:28.222Z,99.90
2018-07-05T22:33:07.866Z,99.90
2018-07-05T22:35:47.374Z,99.90
2018-07-05T22:38:26.840Z,99.90
2018-07-05T22:41:06.366Z,99.90
2018-07-05T22:43:45.896Z,99.90
2018-07-05T22:46:25.410Z,99.90
2018-07-05T22:49:05.076Z,99.90
2018-07-05T22:51:44.618Z,99.90
2018-07-05T22:54:24.121Z,99.90
2018-07-05T22:57:03.714Z,99.90
2018-07-05T22:59:43.201Z,99.90
2018-07-05T23:04:56.226Z,99.90
2018-07-05T23:07:35.661Z,99.90
2018-07-05T23:10:15.477Z,99.90
2018-07-05T23:12:54.940Z,99.90
2018-07-05T23:15:34.570Z,99.90
2018-07-05T23:18:14.115Z,99.90
2018-07-05T23:20:53.598Z,99.90
2018-07-05T23:23:33.137Z,99.90
2018-07-05T23:26:12.660Z,99.90
2018-07-05T23:28:52.196Z,99.90
2018-07-05T23:31:31.739Z,99.90
2018-07-05T23:34:11.310Z,99.90
2018-07-05T23:36:50.846Z,99.90
2018-07-05T23:39:30.368Z,99.90
2018-07-05T23:42:09.934Z,99.90
2018-07-05T23:44:49.464Z,99.90
2018-07-05T23:47:28.994Z,99.90
2018-07-05T23:50:08.550Z,99.90
2018-07-05T23:52:48.218Z,99.90
2018-07-05T23:55:27.701Z,99.90
2018-07-05T23:58:07.239Z,99.90
